Time;durP1;ratioP1;P1;durP2;ratioP2;P2;SDS_P1;SDS_P2;PMS_P1;PMS_P2;Temp;Humidity;BMP_temperature;BMP_pressure;BME280_temperature;BME280_humidity;BME280_pressure;Samples;Min_cycle;Max_cycle;Signal;HPM_P1;HPM_P2
2024/01/27 00:01:15;;;;;;;6.73;2.90;;;4.70;77.70;;;;;;5027518;28;20270;-71
2024/01/27 00:03:41;;;;;;;9.30;3.60;;;4.60;78.00;;;;;;5025211;28;20232;-71
2024/01/27 00:06:06;;;;;;;7.50;2.90;;;4.60;78.00;;;;;;5040540;28;20200;-72
2024/01/27 00:08:32;;;;;;;12.30;4.13;;;4.60;78.30;;;;;;5035598;28;20189;-71
2024/01/27 00:10:58;;;;;;;6.50;3.30;;;4.40;78.70;;;;;;5035719;28;20266;-71
2024/01/27 00:13:23;;;;;;;7.70;3.20;;;4.00;79.60;;;;;;5019604;28;20189;-71
2024/01/27 00:15:49;;;;;;;4.67;2.87;;;3.90;80.30;;;;;;5030626;28;20193;-70
2024/01/27 00:18:16;;;;;;;6.73;2.90;;;3.80;80.60;;;;;;5027934;28;20189;-70
2024/01/27 00:20:41;;;;;;;5.00;2.93;;;3.80;81.10;;;;;;5026083;28;20217;-71
2024/01/27 00:23:08;;;;;;;17.40;6.57;;;3.70;81.20;;;;;;5020374;28;20483;-71
2024/01/27 00:25:33;;;;;;;12.30;4.77;;;3.70;81.70;;;;;;5027968;28;20180;-71
2024/01/27 00:27:59;;;;;;;5.43;3.10;;;3.70;81.80;;;;;;5023597;28;20436;-70
2024/01/27 00:30:25;;;;;;;5.80;3.70;;;3.70;82.10;;;;;;5028271;28;20690;-71
2024/01/27 00:32:51;;;;;;;7.33;3.80;;;3.80;82.10;;;;;;5021161;28;20185;-71
2024/01/27 00:35:17;;;;;;;9.33;4.00;;;3.80;81.90;;;;;;5026086;28;20449;-71
2024/01/27 00:37:42;;;;;;;8.23;3.60;;;3.80;82.10;;;;;;5029633;28;20952;-72
2024/01/27 00:40:12;;;;;;;5.73;3.27;;;3.70;81.90;;;;;;5023795;28;20237;-71
2024/01/27 00:42:38;;;;;;;6.80;4.03;;;3.60;82.10;;;;;;5024375;28;20200;-71
2024/01/27 00:45:05;;;;;;;7.20;3.20;;;3.70;82.40;;;;;;5020187;28;20944;-72
2024/01/27 00:47:31;;;;;;;8.83;3.43;;;3.70;82.40;;;;;;5036202;28;20185;-73
2024/01/27 00:49:56;;;;;;;8.73;3.20;;;3.80;82.40;;;;;;5020165;28;20956;-72
2024/01/27 00:52:24;;;;;;;4.70;2.70;;;3.90;82.20;;;;;;5022083;28;20416;-73
2024/01/27 00:54:49;;;;;;;9.60;3.00;;;3.80;81.80;;;;;;5019192;28;20186;-73
2024/01/27 00:57:16;;;;;;;7.53;2.90;;;3.70;81.80;;;;;;5028597;28;20798;-71
2024/01/27 00:59:41;;;;;;;8.80;3.10;;;3.70;81.80;;;;;;5028764;28;20273;-73
2024/01/27 01:02:07;;;;;;;6.17;3.27;;;3.90;81.80;;;;;;5017453;28;20503;-71
2024/01/27 01:04:33;;;;;;;3.63;2.60;;;3.90;81.70;;;;;;5034381;28;20176;-72
2024/01/27 01:07:01;;;;;;;8.63;3.90;;;3.90;81.50;;;;;;5035771;28;20195;-71
2024/01/27 01:09:26;;;;;;;6.60;3.40;;;3.80;81.20;;;;;;5030960;28;20477;-71
2024/01/27 01:11:52;;;;;;;4.60;2.73;;;3.80;81.50;;;;;;5030129;28;20479;-73
2024/01/27 01:14:17;;;;;;;7.07;2.73;;;3.80;81.50;;;;;;5033258;28;20194;-72
2024/01/27 01:16:43;;;;;;;6.10;2.87;;;3.70;81.70;;;;;;5027823;28;20196;-72
2024/01/27 01:19:08;;;;;;;6.30;2.40;;;3.70;81.90;;;;;;5029044;28;20205;-72
2024/01/27 01:21:34;;;;;;;5.53;2.90;;;3.70;81.90;;;;;;5015479;28;20232;-72
2024/01/27 01:24:00;;;;;;;6.17;3.47;;;3.70;81.80;;;;;;5023287;28;20221;-71
2024/01/27 01:26:25;;;;;;;15.17;3.50;;;3.60;81.70;;;;;;5019063;28;20189;-71
2024/01/27 01:28:52;;;;;;;4.77;2.57;;;3.50;81.80;;;;;;5027722;28;20619;-71
2024/01/27 01:31:17;;;;;;;7.70;3.20;;;3.50;82.10;;;;;;5018533;28;20275;-72
2024/01/27 01:33:44;;;;;;;7.80;2.83;;;3.50;82.10;;;;;;5023778;28;20646;-72
2024/01/27 01:36:10;;;;;;;5.90;2.10;;;3.50;82.10;;;;;;5026906;28;20194;-72
2024/01/27 01:38:35;;;;;;;5.30;2.67;;;3.40;82.10;;;;;;5035124;28;20428;-71
2024/01/27 01:41:01;;;;;;;4.20;2.20;;;3.40;82.20;;;;;;5016557;28;20202;-73
2024/01/27 01:43:27;;;;;;;4.73;2.60;;;3.40;82.10;;;;;;5019963;28;20208;-73
2024/01/27 01:45:55;;;;;;;7.90;3.73;;;3.30;82.10;;;;;;5021623;28;20235;-71
2024/01/27 01:48:21;;;;;;;5.70;3.27;;;3.40;82.10;;;;;;5019011;28;20188;-71
2024/01/27 01:50:47;;;;;;;6.83;3.10;;;3.50;81.90;;;;;;5020567;28;20456;-72
2024/01/27 01:53:13;;;;;;;8.77;3.30;;;3.40;81.90;;;;;;5017117;28;20223;-71
2024/01/27 01:55:39;;;;;;;5.23;3.00;;;3.30;82.10;;;;;;5026574;28;20421;-71
2024/01/27 01:58:05;;;;;;;7.40;3.75;;;3.10;82.10;;;;;;5021587;28;20937;-72
2024/01/27 02:00:32;;;;;;;4.40;2.83;;;3.00;82.40;;;;;;5024485;28;20224;-71
2024/01/27 02:02:58;;;;;;;7.33;3.40;;;3.10;82.80;;;;;;5018499;28;21271;-72
2024/01/27 02:05:23;;;;;;;8.63;3.43;;;3.00;82.80;;;;;;5032095;28;20419;-72
2024/01/27 02:07:49;;;;;;;5.97;2.77;;;3.00;82.70;;;;;;5018552;28;20441;-72
2024/01/27 02:10:17;;;;;;;7.63;3.03;;;2.90;82.40;;;;;;5029223;28;20213;-70
2024/01/27 02:12:44;;;;;;;5.95;3.22;;;2.90;82.80;;;;;;5028116;28;20463;-73
2024/01/27 02:15:11;;;;;;;6.15;3.00;;;2.80;83.00;;;;;;5030303;28;20204;-70
2024/01/27 02:17:37;;;;;;;5.38;2.90;;;2.80;83.30;;;;;;5029142;28;20180;-70
2024/01/27 02:20:04;;;;;;;5.73;3.27;;;2.80;83.30;;;;;;5030517;28;20188;-72
2024/01/27 02:22:29;;;;;;;8.63;3.35;;;2.80;83.40;;;;;;5014454;28;20310;-71
2024/01/27 02:24:55;;;;;;;7.03;3.43;;;2.70;83.60;;;;;;5020153;28;20244;-70
2024/01/27 02:27:20;;;;;;;4.77;2.60;;;2.70;83.70;;;;;;5039852;28;20172;-70
2024/01/27 02:29:46;;;;;;;4.43;2.80;;;2.60;83.80;;;;;;5020052;28;20182;-71
2024/01/27 02:32:11;;;;;;;6.63;2.77;;;2.60;84.00;;;;;;5018838;28;20204;-71
2024/01/27 02:34:37;;;;;;;7.80;2.80;;;2.60;84.10;;;;;;5017845;28;20233;-71
2024/01/27 02:37:03;;;;;;;5.60;3.00;;;2.60;84.10;;;;;;5032429;28;20209;-71
2024/01/27 02:39:29;;;;;;;5.43;3.00;;;2.50;84.40;;;;;;5015051;28;20174;-71
2024/01/27 02:41:54;;;;;;;6.40;3.40;;;2.40;84.40;;;;;;5015862;28;20474;-72
2024/01/27 02:44:20;;;;;;;8.83;3.30;;;2.50;84.70;;;;;;5006766;28;20197;-70
2024/01/27 02:46:45;;;;;;;7.50;3.20;;;2.50;85.00;;;;;;5016147;28;20232;-72
2024/01/27 02:49:11;;;;;;;7.23;3.10;;;2.50;85.00;;;;;;5016715;28;20241;-71
2024/01/27 02:51:37;;;;;;;10.40;4.20;;;2.70;85.00;;;;;;5010576;28;20214;-71
2024/01/27 02:54:02;;;;;;;6.13;2.97;;;2.70;84.10;;;;;;5019229;28;20185;-71
2024/01/27 02:56:28;;;;;;;5.00;2.93;;;2.60;84.10;;;;;;5015369;28;20186;-70
2024/01/27 02:58:54;;;;;;;6.80;3.53;;;2.50;84.10;;;;;;5016749;28;20185;-71
2024/01/27 03:01:19;;;;;;;6.17;3.13;;;2.50;84.30;;;;;;5017973;28;20221;-71
2024/01/27 03:03:45;;;;;;;4.87;2.93;;;2.50;84.60;;;;;;5019623;28;20232;-72
2024/01/27 03:06:11;;;;;;;15.30;4.55;;;2.50;85.00;;;;;;5017919;28;20276;-70
2024/01/27 03:08:36;;;;;;;3.83;3.10;;;2.40;85.00;;;;;;5025040;28;20269;-72
2024/01/27 03:11:03;;;;;;;11.00;3.70;;;2.50;85.00;;;;;;5023314;28;20212;-70
2024/01/27 03:13:28;;;;;;;5.85;3.78;;;2.50;85.00;;;;;;5026512;28;20235;-71
2024/01/27 03:15:54;;;;;;;11.27;3.33;;;2.40;85.00;;;;;;5019778;28;20578;-72
2024/01/27 03:18:19;;;;;;;7.70;3.03;;;2.40;84.90;;;;;;5027196;28;20272;-71
2024/01/27 03:20:45;;;;;;;7.90;3.00;;;2.40;85.00;;;;;;5019913;28;20214;-71
2024/01/27 03:23:11;;;;;;;9.03;3.63;;;2.50;85.00;;;;;;5027234;28;20221;-71
2024/01/27 03:25:36;;;;;;;9.63;3.17;;;2.60;84.70;;;;;;5025592;28;20713;-71
2024/01/27 03:28:02;;;;;;;11.93;3.33;;;2.60;84.40;;;;;;5030638;28;20185;-72
2024/01/27 03:30:27;;;;;;;11.53;3.97;;;2.50;84.40;;;;;;5023577;28;20208;-71
2024/01/27 03:32:53;;;;;;;7.80;3.20;;;2.40;84.40;;;;;;5028231;28;20272;-72
2024/01/27 03:35:19;;;;;;;8.90;3.60;;;2.50;84.70;;;;;;5021013;28;20292;-72
2024/01/27 03:37:45;;;;;;;5.17;3.37;;;2.40;84.40;;;;;;5028412;28;20269;-71
2024/01/27 03:40:11;;;;;;;5.07;3.38;;;2.50;84.60;;;;;;5027466;28;20423;-70
2024/01/27 03:42:37;;;;;;;11.50;3.50;;;2.60;84.40;;;;;;5033615;28;20304;-71
2024/01/27 03:45:03;;;;;;;5.37;2.83;;;2.60;83.80;;;;;;5024933;28;20186;-71
2024/01/27 03:47:28;;;;;;;9.32;3.65;;;2.50;83.70;;;;;;5022856;28;20205;-72
2024/01/27 03:49:54;;;;;;;5.33;3.37;;;2.40;83.80;;;;;;5021824;28;21072;-71
2024/01/27 03:52:19;;;;;;;11.17;3.30;;;2.40;84.10;;;;;;5025516;28;20199;-71
2024/01/27 03:54:45;;;;;;;12.50;3.40;;;2.20;84.10;;;;;;5026119;28;20181;-72
2024/01/27 03:57:11;;;;;;;7.20;3.97;;;2.20;84.40;;;;;;5026266;28;20642;-71
2024/01/27 03:59:36;;;;;;;10.57;4.83;;;2.00;84.60;;;;;;5025101;28;20251;-71
2024/01/27 04:02:02;;;;;;;9.80;3.73;;;2.00;84.70;;;;;;5024297;28;20262;-72
2024/01/27 04:04:28;;;;;;;9.57;3.90;;;2.00;84.90;;;;;;5023258;28;20196;-71
2024/01/27 04:06:53;;;;;;;7.10;3.60;;;2.10;85.00;;;;;;5022851;28;20185;-72
2024/01/27 04:09:19;;;;;;;8.67;3.63;;;2.20;85.00;;;;;;5022075;28;20178;-72
2024/01/27 04:11:44;;;;;;;12.60;4.30;;;2.20;84.70;;;;;;5024451;28;20755;-72
2024/01/27 04:14:10;;;;;;;7.40;3.87;;;2.20;84.60;;;;;;5028127;28;20265;-71
2024/01/27 04:16:36;;;;;;;9.80;3.90;;;2.20;84.60;;;;;;5024779;28;20267;-72
2024/01/27 04:19:02;;;;;;;7.13;3.53;;;2.00;84.70;;;;;;5026440;28;20182;-72
2024/01/27 04:21:27;;;;;;;9.07;4.10;;;2.00;84.90;;;;;;5021784;28;20213;-72
2024/01/27 04:23:53;;;;;;;11.63;4.70;;;1.90;84.90;;;;;;5024380;28;20465;-72
2024/01/27 04:26:18;;;;;;;8.30;3.77;;;1.90;85.20;;;;;;5018964;28;20191;-71
2024/01/27 04:28:45;;;;;;;6.60;3.53;;;1.80;85.30;;;;;;5024474;28;20186;-72
2024/01/27 04:31:10;;;;;;;15.50;4.85;;;1.80;85.50;;;;;;5017640;28;20233;-71
2024/01/27 04:33:36;;;;;;;8.40;4.03;;;1.90;85.60;;;;;;5023243;28;20596;-71
2024/01/27 04:36:01;;;;;;;16.57;4.63;;;1.80;85.60;;;;;;5018057;28;20188;-71
2024/01/27 04:38:27;;;;;;;12.73;3.80;;;1.90;85.60;;;;;;5027306;28;20181;-72
2024/01/27 04:40:56;;;;;;;10.23;4.17;;;1.90;85.60;;;;;;5021074;28;20299;-75
2024/01/27 04:43:21;;;;;;;9.68;4.00;;;1.90;85.60;;;;;;5024325;28;20200;-72
2024/01/27 04:45:49;;;;;;;6.20;4.07;;;1.90;85.50;;;;;;5024342;28;20196;-72
2024/01/27 04:48:14;;;;;;;6.53;3.67;;;1.90;85.50;;;;;;5032430;28;20667;-71
2024/01/27 04:50:40;;;;;;;10.83;4.13;;;1.90;85.50;;;;;;5021445;28;20213;-72
2024/01/27 04:53:06;;;;;;;7.37;4.23;;;1.80;85.20;;;;;;5023383;28;20194;-71
2024/01/27 04:55:32;;;;;;;8.88;4.28;;;1.80;85.30;;;;;;5033964;28;20178;-72
2024/01/27 04:57:58;;;;;;;12.90;5.10;;;1.80;85.30;;;;;;5026831;28;20182;-72
2024/01/27 05:00:26;;;;;;;10.80;3.83;;;1.80;85.30;;;;;;5032433;28;20218;-71
2024/01/27 05:02:52;;;;;;;13.88;4.55;;;1.70;85.30;;;;;;5023026;28;20198;-71
2024/01/27 05:05:18;;;;;;;7.57;3.70;;;1.80;85.60;;;;;;5037431;28;20180;-71
2024/01/27 05:07:44;;;;;;;15.53;4.10;;;1.80;85.50;;;;;;5027824;28;20425;-71
2024/01/27 05:10:15;;;;;;;5.05;4.03;;;1.80;85.50;;;;;;5038204;28;21047;-72
2024/01/27 05:12:41;;;;;;;6.38;4.25;;;1.80;85.50;;;;;;5021501;28;20177;-71
2024/01/27 05:15:06;;;;;;;18.30;4.07;;;1.70;85.60;;;;;;5023863;28;20193;-71
2024/01/27 05:17:32;;;;;;;8.50;3.83;;;1.80;85.60;;;;;;5017378;28;20182;-71
2024/01/27 05:19:58;;;;;;;11.87;4.20;;;1.70;85.60;;;;;;5023869;28;20433;-71
2024/01/27 05:22:24;;;;;;;18.30;4.53;;;1.70;85.70;;;;;;5019297;28;20698;-72
2024/01/27 05:24:49;;;;;;;9.23;4.20;;;1.70;85.70;;;;;;5024450;28;20429;-72
2024/01/27 05:27:15;;;;;;;16.17;4.17;;;1.60;85.90;;;;;;5025438;28;20264;-71
2024/01/27 05:29:41;;;;;;;9.97;5.10;;;1.80;86.00;;;;;;5027655;28;20178;-72
2024/01/27 05:32:06;;;;;;;10.23;4.45;;;1.80;85.70;;;;;;5018224;28;20209;-72
2024/01/27 05:34:32;;;;;;;7.23;3.80;;;1.80;85.50;;;;;;5026020;28;20729;-71
2024/01/27 05:36:58;;;;;;;8.13;3.83;;;1.80;85.60;;;;;;5032316;28;20724;-71
2024/01/27 05:39:23;;;;;;;8.30;4.90;;;1.80;85.60;;;;;;5031181;28;20188;-71
2024/01/27 05:41:49;;;;;;;4.50;3.50;;;1.70;85.60;;;;;;5023493;28;20359;-72
2024/01/27 05:44:14;;;;;;;8.37;3.87;;;1.60;85.60;;;;;;5030986;28;20197;-71
2024/01/27 05:46:40;;;;;;;7.67;4.27;;;1.60;85.70;;;;;;5032687;28;20194;-71
2024/01/27 05:49:06;;;;;;;9.27;3.93;;;1.60;85.70;;;;;;5039508;28;20228;-71
2024/01/27 05:51:31;;;;;;;13.50;4.10;;;1.60;85.70;;;;;;5023400;28;20519;-71
2024/01/27 05:53:57;;;;;;;10.27;4.00;;;1.60;85.70;;;;;;5034268;28;20696;-71
2024/01/27 05:56:22;;;;;;;8.27;4.27;;;1.60;85.90;;;;;;5025137;28;20181;-72
2024/01/27 05:58:48;;;;;;;13.57;4.03;;;1.60;85.90;;;;;;5032097;28;20748;-72
2024/01/27 06:01:14;;;;;;;7.00;3.60;;;1.60;85.90;;;;;;5019858;28;20285;-72
2024/01/27 06:03:43;;;;;;;8.57;4.57;;;1.50;85.70;;;;;;5023955;28;20634;-71
2024/01/27 06:06:09;;;;;;;7.20;3.80;;;1.40;85.70;;;;;;5036115;28;20261;-71
2024/01/27 06:08:35;;;;;;;8.40;4.33;;;1.40;85.90;;;;;;5029421;28;20272;-70
2024/01/27 06:11:03;;;;;;;8.07;3.83;;;1.50;86.20;;;;;;5034983;28;20221;-71
2024/01/27 06:13:29;;;;;;;6.00;3.90;;;1.60;86.00;;;;;;5015941;28;20564;-70
2024/01/27 06:15:54;;;;;;;10.53;4.00;;;1.50;85.90;;;;;;5032292;28;20178;-70
2024/01/27 06:18:20;;;;;;;5.83;3.50;;;1.50;85.70;;;;;;5020327;28;20182;-71
2024/01/27 06:20:46;;;;;;;11.00;4.70;;;1.40;85.60;;;;;;5021336;28;20575;-71
2024/01/27 06:23:12;;;;;;;8.85;4.15;;;1.30;85.60;;;;;;5018349;28;20220;-71
2024/01/27 06:25:37;;;;;;;6.97;3.87;;;1.30;85.90;;;;;;5028536;28;20199;-71
2024/01/27 06:28:03;;;;;;;11.30;4.30;;;1.30;86.00;;;;;;5021987;28;20189;-72
2024/01/27 06:30:28;;;;;;;7.30;4.27;;;1.30;86.20;;;;;;5026236;28;20366;-71
2024/01/27 06:32:54;;;;;;;9.73;4.70;;;1.20;86.20;;;;;;5019242;28;20181;-71
2024/01/27 06:35:20;;;;;;;8.93;4.17;;;1.10;86.30;;;;;;5020958;28;20661;-71
2024/01/27 06:37:45;;;;;;;9.30;4.47;;;1.20;86.30;;;;;;5026946;28;20204;-71
2024/01/27 06:40:13;;;;;;;8.33;4.33;;;1.20;86.30;;;;;;5024661;28;20343;-72
2024/01/27 06:42:39;;;;;;;12.88;3.85;;;1.20;86.50;;;;;;5024512;28;20293;-71
2024/01/27 06:45:05;;;;;;;11.60;5.60;;;1.30;86.50;;;;;;5031693;28;20268;-71
2024/01/27 06:47:31;;;;;;;10.77;4.72;;;1.30;86.50;;;;;;5034872;28;20184;-72
2024/01/27 06:49:56;;;;;;;14.77;5.60;;;1.30;86.30;;;;;;5034738;28;20236;-71
2024/01/27 06:52:22;;;;;;;20.57;5.03;;;1.30;86.20;;;;;;5037409;28;20208;-71
2024/01/27 06:54:47;;;;;;;11.57;4.97;;;1.30;86.00;;;;;;5029201;28;20240;-70
2024/01/27 06:57:23;;;;;;;14.83;4.20;;;1.30;86.00;;;;;;5039716;28;20268;-70
2024/01/27 06:59:55;;;;;;;12.90;4.82;;;1.30;86.00;;;;;;5024957;28;20240;-71
2024/01/27 07:02:28;;;;;;;15.65;5.68;;;1.30;86.20;;;;;;5029801;28;20215;-71
2024/01/27 07:04:55;;;;;;;16.33;5.13;;;1.30;86.20;;;;;;5025671;28;20216;-70
2024/01/27 07:07:26;;;;;;;14.48;5.38;;;1.30;86.00;;;;;;5032468;28;20722;-71
2024/01/27 07:09:54;;;;;;;11.15;6.05;;;1.40;86.30;;;;;;5020485;28;20190;-71
2024/01/27 07:12:20;;;;;;;14.68;5.35;;;1.40;86.30;;;;;;5035947;28;20250;-72
2024/01/27 07:14:45;;;;;;;10.00;4.80;;;1.30;86.20;;;;;;5026575;28;20189;-72
2024/01/27 07:17:11;;;;;;;12.40;5.13;;;1.30;86.30;;;;;;5037993;28;20237;-70
2024/01/27 07:19:36;;;;;;;11.03;4.53;;;1.30;86.30;;;;;;5028135;28;20192;-71
2024/01/27 07:22:03;;;;;;;11.63;4.90;;;1.30;86.50;;;;;;5028558;28;20206;-72
2024/01/27 07:24:29;;;;;;;13.05;5.00;;;1.30;86.50;;;;;;5030964;28;20234;-72
2024/01/27 07:26:55;;;;;;;10.87;5.07;;;1.30;86.50;;;;;;5037035;28;20182;-70
2024/01/27 07:29:21;;;;;;;11.87;5.23;;;1.30;86.30;;;;;;5030723;28;20424;-72
2024/01/27 07:31:48;;;;;;;8.70;6.07;;;1.30;86.00;;;;;;5025801;28;20204;-71
2024/01/27 07:34:13;;;;;;;12.38;4.95;;;1.20;86.00;;;;;;5031400;28;20247;-71
2024/01/27 07:36:39;;;;;;;14.63;5.40;;;1.30;86.20;;;;;;5040468;28;20182;-70
2024/01/27 07:39:04;;;;;;;13.63;5.60;;;1.30;86.20;;;;;;5041383;28;20631;-72
2024/01/27 07:41:30;;;;;;;11.20;4.83;;;1.30;86.30;;;;;;5024600;28;20210;-71
2024/01/27 07:43:56;;;;;;;10.75;4.38;;;1.30;86.30;;;;;;5021879;28;20215;-71
2024/01/27 07:46:22;;;;;;;14.90;5.93;;;1.40;86.50;;;;;;5033354;28;20184;-70
2024/01/27 07:48:51;;;;;;;8.05;4.80;;;1.40;86.80;;;;;;5028987;28;20678;-71
2024/01/27 07:51:17;;;;;;;12.30;5.45;;;1.50;86.80;;;;;;5031930;28;20209;-72
2024/01/27 07:53:42;;;;;;;11.97;5.20;;;1.50;86.20;;;;;;5032351;28;20189;-70
2024/01/27 07:56:08;;;;;;;11.60;5.13;;;1.50;85.70;;;;;;5025168;28;20186;-70
2024/01/27 07:58:33;;;;;;;18.00;6.30;;;1.50;85.60;;;;;;5034861;28;20259;-71
2024/01/27 08:01:00;;;;;;;22.03;6.47;;;1.50;85.60;;;;;;5024786;28;20302;-71
2024/01/27 08:03:25;;;;;;;13.88;6.22;;;1.60;85.60;;;;;;5025659;28;20255;-71
2024/01/27 08:05:51;;;;;;;15.33;6.47;;;1.60;85.50;;;;;;5022750;28;20647;-71
2024/01/27 08:08:16;;;;;;;16.13;7.03;;;1.50;85.20;;;;;;5037084;28;20669;-70
2024/01/27 08:10:42;;;;;;;16.70;7.37;;;1.50;85.60;;;;;;5019766;28;20209;-71
2024/01/27 08:13:08;;;;;;;14.87;6.60;;;1.60;85.70;;;;;;5027208;28;20182;-71
2024/01/27 08:15:33;;;;;;;12.47;6.20;;;1.60;85.60;;;;;;5024332;28;20189;-70
2024/01/27 08:17:59;;;;;;;17.83;7.03;;;1.70;85.90;;;;;;5032262;28;20565;-71
2024/01/27 08:20:24;;;;;;;17.33;7.57;;;1.80;85.90;;;;;;5022368;28;20206;-70
2024/01/27 08:22:51;;;;;;;17.70;6.47;;;1.80;85.90;;;;;;5026084;28;20296;-71
2024/01/27 08:25:17;;;;;;;17.00;6.28;;;1.90;85.90;;;;;;5032155;28;20184;-71
2024/01/27 08:27:43;;;;;;;13.30;5.35;;;2.00;85.70;;;;;;5039561;28;20209;-71
2024/01/27 08:30:10;;;;;;;10.83;4.80;;;1.90;85.60;;;;;;5025378;28;20786;-71
2024/01/27 08:32:35;;;;;;;11.10;4.70;;;2.00;85.60;;;;;;5023269;28;20182;-71
2024/01/27 08:35:01;;;;;;;11.10;4.57;;;2.10;85.60;;;;;;5024247;28;20776;-70
2024/01/27 08:37:27;;;;;;;9.77;4.77;;;2.20;85.50;;;;;;5029322;28;20188;-70
2024/01/27 08:39:52;;;;;;;8.87;5.13;;;2.20;85.30;;;;;;5028660;28;20247;-71
2024/01/27 08:42:18;;;;;;;10.03;4.70;;;2.30;85.20;;;;;;5021472;28;20205;-70
2024/01/27 08:44:44;;;;;;;19.40;5.27;;;2.40;84.90;;;;;;5028577;28;20256;-70
2024/01/27 08:47:09;;;;;;;10.57;4.90;;;2.40;84.60;;;;;;5031030;28;20665;-71
2024/01/27 08:49:36;;;;;;;10.15;6.07;;;2.40;84.30;;;;;;5029253;28;20653;-71
2024/01/27 08:52:03;;;;;;;12.20;6.47;;;2.40;84.10;;;;;;5025339;28;20259;-71
2024/01/27 08:54:28;;;;;;;9.32;6.30;;;2.40;84.30;;;;;;5034749;28;20189;-71
2024/01/27 08:56:54;;;;;;;12.77;7.40;;;2.40;84.30;;;;;;5021643;28;20614;-71
2024/01/27 08:59:19;;;;;;;16.10;8.63;;;2.50;84.30;;;;;;5028629;28;20263;-71
2024/01/27 09:01:45;;;;;;;16.00;8.13;;;2.40;84.30;;;;;;5023374;28;20206;-71
2024/01/27 09:04:10;;;;;;;17.77;8.00;;;2.50;84.40;;;;;;5023370;28;20740;-72
2024/01/27 09:06:36;;;;;;;19.13;8.40;;;2.50;84.40;;;;;;5025526;28;20201;-71
2024/01/27 09:09:02;;;;;;;15.70;7.47;;;2.50;84.40;;;;;;5034685;28;20685;-70
2024/01/27 09:11:30;;;;;;;16.00;7.32;;;2.60;84.60;;;;;;5028373;28;20252;-71
2024/01/27 09:13:56;;;;;;;12.20;6.03;;;2.70;84.40;;;;;;5026679;28;20182;-70
2024/01/27 09:16:21;;;;;;;23.15;8.38;;;2.90;84.30;;;;;;5029450;28;20204;-71
2024/01/27 09:18:50;;;;;;;16.90;7.53;;;2.90;83.40;;;;;;5019318;28;20663;-72
2024/01/27 09:21:20;;;;;;;24.30;7.75;;;2.90;83.30;;;;;;5024688;28;20213;-71
2024/01/27 09:23:46;;;;;;;18.40;9.38;;;3.00;83.40;;;;;;5016339;28;20292;-70
2024/01/27 09:26:12;;;;;;;14.38;7.30;;;3.00;83.10;;;;;;5033140;28;20188;-70
2024/01/27 09:28:43;;;;;;;18.02;7.90;;;3.00;83.00;;;;;;5034828;28;20173;-72
2024/01/27 09:31:10;;;;;;;19.55;9.40;;;3.00;83.10;;;;;;5024839;28;20213;-72
2024/01/27 09:33:36;;;;;;;14.70;7.47;;;3.10;83.30;;;;;;5026337;28;20185;-71
2024/01/27 09:36:01;;;;;;;18.00;7.73;;;3.20;83.40;;;;;;5033914;28;20284;-71
2024/01/27 09:38:27;;;;;;;14.17;7.97;;;3.30;83.10;;;;;;5028910;28;20184;-70
2024/01/27 09:40:53;;;;;;;18.50;7.73;;;3.50;82.70;;;;;;5029474;28;20706;-71
2024/01/27 09:43:21;;;;;;;12.57;8.23;;;3.60;82.20;;;;;;5024038;28;20467;-71
2024/01/27 09:45:46;;;;;;;16.37;8.03;;;3.80;81.70;;;;;;5029853;28;20728;-71
2024/01/27 09:48:13;;;;;;;23.63;9.50;;;3.90;80.90;;;;;;5030812;28;20456;-71
2024/01/27 09:50:44;;;;;;;18.10;8.53;;;3.80;80.50;;;;;;5023880;28;20600;-70
2024/01/27 09:53:10;;;;;;;18.93;10.30;;;3.90;80.60;;;;;;5022926;28;20424;-72
2024/01/27 09:55:36;;;;;;;17.60;8.77;;;4.00;80.80;;;;;;5026851;28;20417;-71
2024/01/27 09:58:02;;;;;;;16.83;8.32;;;4.00;80.80;;;;;;5035062;28;20186;-72
2024/01/27 10:00:28;;;;;;;15.33;8.47;;;4.10;80.80;;;;;;5025085;28;20226;-70
2024/01/27 10:02:57;;;;;;;18.10;8.17;;;4.10;80.80;;;;;;5032434;28;20216;-71
2024/01/27 10:05:24;;;;;;;23.47;8.73;;;4.20;80.20;;;;;;5019083;28;20178;-71
2024/01/27 10:07:49;;;;;;;16.80;8.13;;;4.30;80.00;;;;;;5029474;28;20499;-70
2024/01/27 10:10:15;;;;;;;19.23;7.13;;;4.40;79.30;;;;;;5019952;28;20568;-72
2024/01/27 10:12:42;;;;;;;17.70;7.23;;;4.40;78.70;;;;;;5029247;28;20199;-72
2024/01/27 10:15:21;;;;;;;15.10;7.20;;;4.50;78.70;;;;;;5025583;28;20264;-72
2024/01/27 10:17:47;;;;;;;10.03;6.20;;;4.70;77.80;;;;;;5028719;28;20424;-70
2024/01/27 10:20:18;;;;;;;20.27;7.50;;;4.80;77.30;;;;;;5021666;28;20459;-70
2024/01/27 10:22:45;;;;;;;11.77;6.97;;;4.90;76.70;;;;;;5023799;28;20456;-71
2024/01/27 10:25:11;;;;;;;12.60;6.73;;;4.90;77.00;;;;;;5028521;28;20925;-70
2024/01/27 10:27:37;;;;;;;17.53;8.47;;;5.10;76.70;;;;;;5035907;28;20517;-71
2024/01/27 10:30:03;;;;;;;16.00;6.03;;;5.10;76.20;;;;;;5029331;28;20940;-71
2024/01/27 10:32:29;;;;;;;14.10;6.90;;;5.20;76.10;;;;;;5028282;28;20852;-71
2024/01/27 10:35:10;;;;;;;11.53;6.53;;;5.30;75.70;;;;;;5028779;28;20415;-72
2024/01/27 10:37:36;;;;;;;11.83;6.33;;;5.40;75.10;;;;;;5026416;28;20181;-71
2024/01/27 10:40:09;;;;;;;16.57;6.57;;;5.50;74.90;;;;;;5028716;28;20802;-71
2024/01/27 10:42:37;;;;;;;18.80;6.67;;;5.70;74.80;;;;;;5026246;28;20463;-71
2024/01/27 10:45:03;;;;;;;10.27;5.60;;;6.10;74.60;;;;;;5041022;28;20423;-70
2024/01/27 10:47:31;;;;;;;14.80;7.43;;;6.70;75.10;;;;;;5033154;28;20515;-71
2024/01/27 10:50:00;;;;;;;16.60;8.03;;;7.30;74.20;;;;;;5035084;28;20468;-70
2024/01/27 10:52:45;;;;;;;13.83;7.43;;;7.50;70.40;;;;;;5022502;28;20984;-71
2024/01/27 10:55:13;;;;;;;18.90;6.93;;;7.70;69.50;;;;;;5027150;28;20440;-70
2024/01/27 10:57:40;;;;;;;17.03;7.33;;;7.90;68.60;;;;;;5038635;28;20427;-71
2024/01/27 11:00:06;;;;;;;9.40;6.27;;;8.20;67.90;;;;;;5031197;28;20800;-72
2024/01/27 11:02:34;;;;;;;14.50;6.37;;;8.40;67.50;;;;;;5030797;28;20582;-71
2024/01/27 11:05:03;;;;;;;22.83;6.40;;;8.60;66.90;;;;;;5029618;28;20424;-70
2024/01/27 11:07:32;;;;;;;14.43;5.90;;;8.60;66.40;;;;;;5023740;28;20932;-71
2024/01/27 11:09:58;;;;;;;15.10;5.17;;;8.90;66.40;;;;;;5025590;28;20444;-70
2024/01/27 11:12:25;;;;;;;11.70;5.13;;;9.30;65.40;;;;;;5027351;28;20423;-70
2024/01/27 11:14:51;;;;;;;16.03;5.33;;;9.80;64.10;;;;;;5026920;28;20212;-71
2024/01/27 11:17:18;;;;;;;10.03;5.17;;;10.30;64.10;;;;;;5029323;28;20472;-72
2024/01/27 11:19:47;;;;;;;13.07;5.93;;;10.60;63.70;;;;;;5032361;28;20412;-71
2024/01/27 11:22:27;;;;;;;15.93;5.67;;;10.60;63.40;;;;;;5021103;28;20436;-71
2024/01/27 11:25:06;;;;;;;7.57;5.10;;;10.80;63.40;;;;;;5028931;28;20436;-71
2024/01/27 11:27:32;;;;;;;9.30;5.23;;;10.80;63.10;;;;;;5028426;28;20431;-72
2024/01/27 11:29:58;;;;;;;10.07;5.50;;;10.50;63.10;;;;;;5035927;28;20431;-70
2024/01/27 11:32:24;;;;;;;10.17;5.97;;;10.00;63.70;;;;;;5045935;28;20193;-71
2024/01/27 11:34:50;;;;;;;13.13;5.83;;;9.60;64.70;;;;;;5043005;28;20190;-71
2024/01/27 11:37:17;;;;;;;7.40;4.80;;;9.20;65.40;;;;;;5058510;28;20467;-71
2024/01/27 11:39:43;;;;;;;12.07;5.93;;;8.90;65.80;;;;;;5037507;28;20182;-71
2024/01/27 11:42:15;;;;;;;11.60;5.63;;;8.60;66.10;;;;;;5035158;28;20528;-71
2024/01/27 11:44:41;;;;;;;11.57;5.20;;;8.00;66.40;;;;;;5038526;28;20529;-69
2024/01/27 11:47:15;;;;;;;10.17;5.30;;;7.90;67.00;;;;;;5043336;28;20436;-71
2024/01/27 11:49:42;;;;;;;6.13;4.40;;;7.80;67.20;;;;;;5039370;28;20419;-70
2024/01/27 11:52:08;;;;;;;11.53;5.27;;;7.60;67.50;;;;;;5032589;28;20471;-73
2024/01/27 11:54:33;;;;;;;10.83;6.17;;;7.50;67.70;;;;;;5036801;28;20423;-70
2024/01/27 11:56:59;;;;;;;18.37;5.30;;;7.40;68.00;;;;;;5036211;28;20189;-71
2024/01/27 11:59:25;;;;;;;11.00;4.90;;;7.40;68.20;;;;;;5037237;28;20327;-72
2024/01/27 12:01:50;;;;;;;11.33;5.50;;;7.30;68.20;;;;;;5032716;28;20339;-71
2024/01/27 12:04:16;;;;;;;10.43;5.30;;;7.20;68.30;;;;;;5035166;28;20228;-72
2024/01/27 12:06:43;;;;;;;15.60;5.57;;;7.00;68.50;;;;;;5042328;28;20196;-71
2024/01/27 12:09:11;;;;;;;10.80;5.80;;;7.00;68.90;;;;;;5042410;28;20428;-71
2024/01/27 12:11:38;;;;;;;10.33;5.10;;;7.20;68.90;;;;;;5040695;28;20609;-71
2024/01/27 12:14:04;;;;;;;11.40;4.97;;;7.20;68.60;;;;;;5038886;28;20566;-72
2024/01/27 12:16:30;;;;;;;8.97;5.10;;;7.20;68.60;;;;;;5038044;28;20464;-72
2024/01/27 12:18:56;;;;;;;13.13;5.43;;;7.30;68.60;;;;;;5046279;28;20194;-72
2024/01/27 12:21:21;;;;;;;11.23;5.17;;;7.30;68.60;;;;;;5026308;28;20464;-72
2024/01/27 12:23:55;;;;;;;8.53;5.13;;;7.40;68.50;;;;;;5034821;28;20492;-72
2024/01/27 12:26:28;;;;;;;7.57;4.37;;;7.40;68.20;;;;;;5026103;28;20185;-72
2024/01/27 12:28:55;;;;;;;15.00;6.00;;;7.30;68.00;;;;;;5033177;28;20425;-72
2024/01/27 12:31:23;;;;;;;9.50;4.50;;;7.20;68.00;;;;;;5025819;28;20498;-72
2024/01/27 12:33:56;;;;;;;12.93;5.17;;;7.30;68.50;;;;;;5028147;28;20440;-71
2024/01/27 12:36:22;;;;;;;11.57;5.13;;;7.40;68.30;;;;;;5035147;28;20430;-71
2024/01/27 12:39:08;;;;;;;10.20;4.60;;;7.30;68.50;;;;;;5029903;28;20432;-72
2024/01/27 12:41:34;;;;;;;19.20;5.27;;;7.30;68.60;;;;;;5020908;28;20460;-70
2024/01/27 12:44:00;;;;;;;8.20;4.60;;;7.50;68.30;;;;;;5025618;28;20479;-72
2024/01/27 12:46:27;;;;;;;6.93;4.57;;;7.60;68.20;;;;;;5032987;28;20555;-71